createdAt,value
2023-01-13T00:01:47.857Z,1.20
2023-01-13T00:04:14.998Z,0.80
2023-01-13T00:06:42.275Z,0.90
2023-01-13T00:09:09.402Z,0.65
2023-01-13T00:11:36.598Z,0.47
2023-01-13T00:14:03.816Z,0.43
2023-01-13T00:16:30.983Z,0.63
2023-01-13T00:18:58.105Z,0.52
2023-01-13T00:21:25.659Z,0.40
2023-01-13T00:23:53.951Z,0.50
2023-01-13T00:26:36.152Z,0.30
2023-01-13T00:29:03.646Z,0.50
2023-01-13T00:31:31.176Z,0.40
2023-01-13T00:33:59.331Z,0.57
2023-01-13T00:36:26.832Z,0.50
2023-01-13T00:38:53.995Z,0.60
2023-01-13T00:41:22.667Z,0.52
2023-01-13T00:43:50.201Z,0.40
2023-01-13T00:46:18.717Z,0.50
2023-01-13T00:48:47.095Z,0.60
2023-01-13T00:51:18.914Z,0.50
2023-01-13T00:53:47.294Z,0.40
2023-01-13T00:56:24.410Z,0.30
2023-01-13T00:58:58.843Z,0.60
2023-01-13T01:01:26.299Z,0.52
2023-01-13T01:03:54.407Z,0.50
2023-01-13T01:06:22.775Z,0.63
2023-01-13T01:08:50.069Z,0.22
2023-01-13T01:11:27.778Z,0.68
2023-01-13T01:13:56.144Z,0.40
2023-01-13T01:16:24.426Z,0.38
2023-01-13T01:18:52.897Z,0.30
2023-01-13T01:21:20.473Z,0.40
2023-01-13T01:23:47.677Z,0.60
2023-01-13T01:26:22.492Z,0.40
2023-01-13T01:28:50.029Z,0.30
2023-01-13T01:31:21.913Z,0.40
2023-01-13T01:33:49.424Z,0.45
2023-01-13T01:36:18.250Z,0.40
2023-01-13T01:38:45.851Z,0.40
2023-01-13T01:41:14.865Z,0.50
2023-01-13T01:44:00.388Z,0.20
2023-01-13T01:46:30.757Z,0.30
2023-01-13T01:49:01.081Z,0.50
2023-01-13T01:51:29.813Z,0.30
2023-01-13T01:53:57.498Z,0.28
2023-01-13T01:56:24.643Z,0.30
2023-01-13T01:58:52.741Z,0.30
2023-01-13T02:01:20.095Z,0.28
2023-01-13T02:03:50.565Z,0.40
2023-01-13T02:06:17.834Z,0.47
2023-01-13T02:08:45.048Z,0.22
2023-01-13T02:11:47.268Z,0.40
2023-01-13T02:14:14.690Z,0.25
2023-01-13T02:16:45.721Z,0.55
2023-01-13T02:19:36.176Z,0.93
2023-01-13T02:22:06.446Z,0.60
2023-01-13T02:25:01.720Z,0.20
2023-01-13T02:27:47.615Z,0.50
2023-01-13T02:30:43.690Z,0.10
2023-01-13T02:33:13.844Z,0.30
2023-01-13T02:35:47.228Z,0.30
2023-01-13T02:38:16.054Z,0.40
2023-01-13T02:40:46.179Z,0.20
2023-01-13T02:43:36.541Z,0.40
2023-01-13T02:46:14.443Z,0.22
2023-01-13T02:48:42.717Z,0.47
2023-01-13T02:51:12.760Z,0.20
2023-01-13T02:53:43.631Z,0.28
2023-01-13T02:56:12.030Z,0.50
2023-01-13T02:58:40.295Z,0.30
2023-01-13T03:01:07.553Z,0.38
2023-01-13T03:03:36.504Z,0.22
2023-01-13T03:06:22.940Z,0.28
2023-01-13T03:09:19.509Z,0.28
2023-01-13T03:11:51.486Z,0.40
2023-01-13T03:14:18.676Z,0.50
2023-01-13T03:16:54.858Z,0.30
2023-01-13T03:19:31.435Z,0.30
2023-01-13T03:22:18.869Z,0.40
2023-01-13T03:24:50.842Z,0.45
2023-01-13T03:27:24.084Z,0.35
2023-01-13T03:29:55.527Z,0.52
2023-01-13T03:32:31.553Z,0.35
2023-01-13T03:35:19.170Z,0.40
2023-01-13T03:37:48.260Z,0.40
2023-01-13T03:40:19.317Z,0.40
2023-01-13T03:43:08.167Z,0.32
2023-01-13T03:45:36.714Z,0.40
2023-01-13T03:48:09.747Z,0.30
2023-01-13T03:50:40.483Z,0.35
2023-01-13T03:53:10.374Z,0.30
2023-01-13T03:55:41.066Z,0.30
2023-01-13T03:58:14.386Z,0.40
2023-01-13T04:00:47.778Z,0.38
2023-01-13T04:03:19.001Z,0.40
2023-01-13T04:05:48.227Z,0.40
2023-01-13T04:08:15.359Z,0.40
2023-01-13T04:10:47.698Z,0.35
2023-01-13T04:13:17.416Z,0.40
2023-01-13T04:15:45.659Z,0.32
2023-01-13T04:18:17.744Z,0.30
2023-01-13T04:20:46.070Z,0.50
2023-01-13T04:23:13.726Z,0.30
2023-01-13T04:25:41.617Z,0.20
2023-01-13T04:28:09.181Z,0.70
2023-01-13T04:30:36.459Z,0.60
2023-01-13T04:33:07.069Z,0.55
2023-01-13T04:35:35.079Z,0.35
2023-01-13T04:38:02.768Z,0.20
2023-01-13T04:40:29.955Z,0.32
2023-01-13T04:42:57.146Z,0.30
2023-01-13T04:45:24.333Z,0.38
2023-01-13T04:47:51.774Z,0.30
2023-01-13T04:50:22.823Z,0.30
2023-01-13T04:52:50.734Z,0.30
2023-01-13T04:55:18.120Z,0.25
2023-01-13T04:57:45.272Z,0.28
2023-01-13T05:00:13.620Z,0.30
2023-01-13T05:02:40.892Z,0.28
2023-01-13T05:05:08.211Z,0.15
2023-01-13T05:07:35.455Z,0.30
2023-01-13T05:10:02.726Z,1.00
2023-01-13T05:12:48.303Z,0.30
2023-01-13T05:15:34.679Z,0.47
2023-01-13T05:18:02.336Z,0.43
2023-01-13T05:20:29.468Z,0.43
2023-01-13T05:23:15.362Z,0.38
2023-01-13T05:25:44.493Z,0.50
2023-01-13T05:28:12.114Z,0.45
2023-01-13T05:30:46.094Z,0.20
2023-01-13T05:33:14.277Z,0.30
2023-01-13T05:35:42.128Z,0.43
2023-01-13T05:38:09.565Z,0.20
2023-01-13T05:40:58.160Z,0.32
2023-01-13T05:43:26.609Z,0.50
2023-01-13T05:45:56.807Z,0.38
2023-01-13T05:48:25.408Z,0.25
2023-01-13T05:50:53.948Z,0.60
2023-01-13T05:53:21.429Z,0.60
2023-01-13T05:55:48.817Z,0.20
2023-01-13T05:58:16.639Z,0.30
2023-01-13T06:00:44.081Z,0.38
2023-01-13T06:03:11.649Z,0.73
2023-01-13T06:05:39.603Z,0.50
2023-01-13T06:08:07.651Z,0.40
2023-01-13T06:10:35.202Z,0.32
2023-01-13T06:13:02.449Z,0.38
2023-01-13T06:15:29.662Z,0.50
2023-01-13T06:17:57.243Z,0.25
2023-01-13T06:20:24.631Z,0.50
2023-01-13T06:22:52.943Z,0.40
2023-01-13T06:25:37.403Z,0.30
2023-01-13T06:28:04.908Z,0.30
2023-01-13T06:30:36.034Z,0.30
2023-01-13T06:33:04.949Z,0.47
2023-01-13T06:35:33.863Z,0.65
2023-01-13T06:38:02.193Z,0.30
2023-01-13T06:40:29.544Z,0.82
2023-01-13T06:43:17.129Z,0.30
2023-01-13T06:45:50.172Z,0.30
2023-01-13T06:48:18.481Z,0.40
2023-01-13T06:50:45.677Z,0.47
2023-01-13T06:53:12.895Z,0.50
2023-01-13T06:55:40.110Z,0.28
2023-01-13T06:58:07.284Z,0.60
2023-01-13T07:00:37.346Z,0.30
2023-01-13T07:03:08.199Z,0.40
2023-01-13T07:05:35.380Z,0.43
2023-01-13T07:08:02.731Z,0.50
2023-01-13T07:10:30.697Z,0.57
2023-01-13T07:13:19.155Z,0.30
2023-01-13T07:15:59.536Z,0.50
2023-01-13T07:18:27.509Z,0.30
2023-01-13T07:21:08.141Z,0.65
2023-01-13T07:23:36.594Z,0.60
2023-01-13T07:26:03.839Z,0.50
2023-01-13T07:28:31.514Z,0.60
2023-01-13T07:30:58.891Z,0.45
2023-01-13T07:33:26.396Z,0.40
2023-01-13T07:35:58.141Z,0.30
2023-01-13T07:38:25.536Z,0.52
2023-01-13T07:40:52.797Z,0.40
2023-01-13T07:43:32.062Z,0.80
2023-01-13T07:46:00.077Z,0.60
2023-01-13T07:48:28.127Z,0.30
2023-01-13T07:50:55.575Z,0.50
2023-01-13T07:53:25.094Z,0.40
2023-01-13T07:55:55.719Z,0.70
2023-01-13T07:58:22.872Z,0.50
2023-01-13T08:00:50.491Z,0.43
2023-01-13T08:03:17.674Z,0.40
2023-01-13T08:05:45.042Z,0.45
2023-01-13T08:08:12.229Z,0.60
2023-01-13T08:10:39.367Z,0.60
2023-01-13T08:13:20.193Z,0.50
2023-01-13T08:15:51.538Z,0.60
2023-01-13T08:18:21.966Z,0.50
2023-01-13T08:20:49.689Z,0.57
2023-01-13T08:23:17.001Z,0.60
2023-01-13T08:25:44.289Z,0.35
2023-01-13T08:28:11.696Z,0.28
2023-01-13T08:30:39.459Z,0.43
2023-01-13T08:33:07.866Z,0.50
2023-01-13T08:35:37.344Z,0.50
2023-01-13T08:38:05.200Z,0.35
2023-01-13T08:40:32.720Z,0.25
2023-01-13T08:43:00.595Z,0.38
2023-01-13T08:45:27.780Z,0.50
2023-01-13T08:47:55.042Z,0.40
2023-01-13T08:50:22.213Z,0.40
2023-01-13T08:52:49.494Z,0.47
2023-01-13T08:55:16.700Z,0.20
2023-01-13T08:57:43.937Z,0.60
2023-01-13T09:00:11.442Z,0.40
2023-01-13T09:02:38.657Z,0.68
2023-01-13T09:05:07.504Z,0.70
2023-01-13T09:07:35.256Z,0.38
2023-01-13T09:10:02.774Z,0.70
2023-01-13T09:12:48.515Z,0.50
2023-01-13T09:15:18.411Z,0.45
2023-01-13T09:17:46.297Z,0.32
2023-01-13T09:20:14.276Z,0.40
2023-01-13T09:22:41.558Z,0.47
2023-01-13T09:25:09.009Z,0.38
2023-01-13T09:27:36.453Z,0.60
2023-01-13T09:30:03.895Z,0.30
2023-01-13T09:32:31.118Z,0.70
2023-01-13T09:35:01.406Z,0.38
2023-01-13T09:37:38.717Z,0.50
2023-01-13T09:40:08.464Z,0.80
2023-01-13T09:42:57.302Z,0.28
2023-01-13T09:45:43.344Z,0.47
2023-01-13T09:48:10.472Z,0.30
2023-01-13T09:50:37.631Z,0.50
2023-01-13T09:53:06.002Z,0.30
2023-01-13T09:55:33.569Z,0.50
2023-01-13T09:58:03.188Z,0.43
2023-01-13T10:00:36.392Z,0.40
2023-01-13T10:03:20.172Z,0.40
2023-01-13T10:05:56.449Z,0.43
2023-01-13T10:08:25.587Z,0.32
2023-01-13T10:10:55.264Z,0.40
2023-01-13T10:13:26.930Z,0.38
2023-01-13T10:16:04.963Z,0.50
2023-01-13T10:18:42.383Z,0.70
2023-01-13T10:21:15.737Z,0.30
2023-01-13T10:23:53.072Z,0.50
2023-01-13T10:26:24.072Z,0.20
2023-01-13T10:28:57.785Z,0.20
2023-01-13T10:31:25.660Z,0.38
2023-01-13T10:33:59.923Z,0.38
2023-01-13T10:36:27.527Z,0.63
2023-01-13T10:38:58.158Z,0.47
2023-01-13T10:41:26.461Z,0.40
2023-01-13T10:43:53.633Z,0.40
2023-01-13T10:46:21.187Z,0.40
2023-01-13T10:48:58.605Z,0.32
2023-01-13T10:51:43.766Z,0.45
2023-01-13T10:54:13.661Z,0.55
2023-01-13T10:56:42.072Z,0.40
2023-01-13T10:59:12.221Z,0.40
2023-01-13T11:01:39.631Z,0.30
2023-01-13T11:04:25.474Z,0.30
2023-01-13T11:06:52.673Z,0.30
2023-01-13T11:09:20.931Z,0.52
2023-01-13T11:11:50.153Z,0.40
2023-01-13T11:14:41.571Z,0.40
2023-01-13T11:17:12.135Z,0.60
2023-01-13T11:19:42.850Z,0.40
2023-01-13T11:22:12.861Z,0.43
2023-01-13T11:24:43.344Z,0.40
2023-01-13T11:27:31.061Z,0.50
2023-01-13T11:30:10.498Z,0.30
2023-01-13T11:32:45.333Z,0.70
2023-01-13T11:35:18.902Z,0.88
2023-01-13T11:37:50.279Z,0.40
2023-01-13T11:40:22.461Z,0.30
2023-01-13T11:43:00.698Z,0.93
2023-01-13T11:45:27.832Z,0.70
2023-01-13T11:47:58.254Z,0.30
2023-01-13T11:50:37.924Z,0.40
2023-01-13T11:53:08.453Z,0.68
2023-01-13T11:55:51.051Z,0.20
2023-01-13T11:58:28.929Z,0.40
2023-01-13T12:01:02.089Z,0.30
2023-01-13T12:03:49.023Z,0.35
2023-01-13T12:06:19.645Z,0.47
2023-01-13T12:09:03.696Z,0.30
2023-01-13T12:12:22.924Z,0.35
2023-01-13T12:15:06.428Z,0.55
2023-01-13T12:17:46.309Z,0.50
2023-01-13T12:20:22.486Z,0.45
2023-01-13T12:22:50.209Z,0.30
2023-01-13T12:25:26.331Z,0.38
2023-01-13T12:27:58.979Z,0.43
2023-01-13T12:30:37.116Z,0.38
2023-01-13T12:33:15.748Z,0.40
2023-01-13T12:35:50.678Z,0.63
2023-01-13T12:38:23.145Z,0.40
2023-01-13T12:41:09.083Z,0.40
2023-01-13T12:43:56.853Z,0.38
2023-01-13T12:46:24.548Z,0.50
2023-01-13T12:48:55.220Z,0.40
2023-01-13T12:51:24.012Z,1.00
2023-01-13T12:53:51.799Z,0.30
2023-01-13T12:56:37.398Z,0.40
2023-01-13T12:59:19.943Z,0.28
2023-01-13T13:01:48.307Z,0.93
2023-01-13T13:04:18.574Z,0.50
2023-01-13T13:06:49.277Z,0.30
2023-01-13T13:09:16.403Z,0.57
2023-01-13T13:11:59.024Z,0.50
2023-01-13T13:14:38.210Z,0.98
2023-01-13T13:17:25.756Z,0.32
2023-01-13T13:19:53.877Z,0.77
2023-01-13T13:22:22.552Z,0.40
2023-01-13T13:24:49.748Z,0.60
2023-01-13T13:27:23.496Z,0.47
2023-01-13T13:29:59.138Z,0.70
2023-01-13T13:32:38.503Z,0.70
2023-01-13T13:35:14.632Z,0.43
2023-01-13T13:38:14.933Z,1.02
2023-01-13T13:41:03.503Z,0.50
2023-01-13T13:43:51.973Z,0.45
2023-01-13T13:46:48.094Z,0.50
2023-01-13T13:49:16.301Z,0.50
2023-01-13T13:52:04.801Z,0.43
2023-01-13T13:54:32.373Z,0.20
2023-01-13T13:57:00.988Z,0.25
2023-01-13T13:59:33.664Z,0.30
2023-01-13T14:02:03.712Z,0.65
2023-01-13T14:04:35.513Z,0.30
2023-01-13T14:07:05.070Z,0.50
2023-01-13T14:09:41.152Z,0.85
2023-01-13T14:12:16.634Z,0.40
2023-01-13T14:14:44.597Z,0.30
2023-01-13T14:17:25.265Z,0.38
2023-01-13T14:19:54.433Z,0.20
2023-01-13T14:22:21.709Z,0.35
2023-01-13T14:24:55.307Z,0.45
2023-01-13T14:27:23.739Z,0.28
2023-01-13T14:29:54.364Z,0.20
2023-01-13T14:32:22.590Z,0.20
2023-01-13T14:34:51.248Z,0.70
2023-01-13T14:37:31.483Z,0.40
2023-01-13T14:39:58.615Z,0.30
2023-01-13T14:42:27.652Z,0.28
2023-01-13T14:44:56.391Z,0.40
2023-01-13T14:47:23.788Z,0.63
2023-01-13T14:50:06.705Z,0.55
2023-01-13T14:52:35.503Z,0.32
2023-01-13T14:55:05.732Z,0.85
2023-01-13T14:57:34.600Z,0.55
2023-01-13T15:00:01.840Z,0.50
2023-01-13T15:02:34.050Z,0.40
2023-01-13T15:05:20.537Z,0.85
2023-01-13T15:07:50.761Z,0.60
2023-01-13T15:10:18.919Z,0.32
2023-01-13T15:12:46.351Z,0.82
2023-01-13T15:15:23.768Z,0.65
2023-01-13T15:17:51.264Z,0.50
2023-01-13T15:20:19.351Z,0.55
2023-01-13T15:22:46.876Z,0.45
2023-01-13T15:25:14.916Z,0.50
2023-01-13T15:27:43.764Z,0.70
2023-01-13T15:30:15.146Z,0.60
2023-01-13T15:32:42.692Z,0.55
2023-01-13T15:35:16.780Z,1.13
2023-01-13T15:37:44.599Z,1.80
2023-01-13T15:40:16.167Z,0.90
2023-01-13T15:43:02.307Z,0.52
2023-01-13T15:45:48.321Z,0.50
2023-01-13T15:48:15.472Z,0.40
2023-01-13T15:50:42.632Z,0.68
2023-01-13T15:53:13.716Z,0.73
2023-01-13T15:55:43.360Z,0.45
2023-01-13T15:58:12.749Z,0.55
2023-01-13T16:00:39.978Z,0.55
2023-01-13T16:03:07.445Z,0.57
2023-01-13T16:05:34.814Z,0.75
2023-01-13T16:08:02.018Z,0.68
2023-01-13T16:10:29.239Z,0.77
2023-01-13T16:12:56.472Z,1.00
2023-01-13T16:15:24.881Z,0.80
2023-01-13T16:17:59.837Z,0.70
2023-01-13T16:22:54.111Z,0.80
2023-01-13T16:25:23.069Z,1.05
2023-01-13T16:27:50.705Z,1.00
2023-01-13T16:30:28.799Z,1.20
2023-01-13T16:32:56.448Z,1.20
2023-01-13T16:35:24.183Z,1.00
2023-01-13T16:37:52.138Z,1.10
2023-01-13T16:40:19.336Z,0.80
2023-01-13T16:42:46.444Z,0.90
2023-01-13T16:45:13.633Z,1.17
2023-01-13T16:47:40.839Z,1.00
2023-01-13T16:50:08.324Z,1.23
2023-01-13T16:52:35.468Z,1.27
2023-01-13T16:55:02.610Z,1.10
2023-01-13T16:57:29.789Z,1.20
2023-01-13T16:59:56.969Z,1.00
2023-01-13T17:02:24.780Z,1.20
2023-01-13T17:04:52.303Z,1.42
2023-01-13T17:07:19.899Z,1.70
2023-01-13T17:09:47.453Z,1.85
2023-01-13T17:12:14.636Z,1.88
2023-01-13T17:14:43.406Z,1.88
2023-01-13T17:17:20.091Z,2.60
2023-01-13T17:19:47.226Z,2.25
2023-01-13T17:22:14.425Z,2.15
2023-01-13T17:24:41.674Z,2.58
2023-01-13T17:27:08.864Z,3.72
2023-01-13T17:29:36.036Z,2.42
2023-01-13T17:32:03.381Z,2.00
2023-01-13T17:34:30.506Z,1.88
2023-01-13T17:36:57.913Z,1.98
2023-01-13T17:39:26.388Z,1.90
2023-01-13T17:41:55.854Z,2.20
2023-01-13T17:44:23.600Z,2.30
2023-01-13T17:46:50.804Z,2.25
2023-01-13T17:49:18.966Z,2.90
2023-01-13T17:51:51.011Z,2.35
2023-01-13T17:54:18.686Z,1.73
2023-01-13T17:56:45.793Z,1.45
2023-01-13T17:59:13.978Z,1.63
2023-01-13T18:01:41.285Z,1.52
2023-01-13T18:04:10.510Z,2.28
2023-01-13T18:06:37.618Z,3.53
2023-01-13T18:09:04.827Z,1.77
2023-01-13T18:11:32.033Z,1.52
2023-01-13T18:14:00.265Z,1.55
2023-01-13T18:16:30.359Z,1.48
2023-01-13T18:19:16.907Z,1.23
2023-01-13T18:22:02.966Z,1.30
2023-01-13T18:24:48.811Z,1.15
2023-01-13T18:27:19.575Z,1.20
2023-01-13T18:29:47.181Z,1.13
2023-01-13T18:32:14.402Z,1.30
2023-01-13T18:34:41.639Z,1.20
2023-01-13T18:37:09.683Z,1.10
2023-01-13T18:39:37.396Z,1.50
2023-01-13T18:42:24.066Z,1.20
2023-01-13T18:44:52.472Z,1.25
2023-01-13T18:47:19.703Z,0.90
2023-01-13T18:49:46.953Z,1.02
2023-01-13T18:52:14.379Z,0.90
2023-01-13T18:54:41.526Z,1.27
2023-01-13T18:57:08.780Z,1.38
2023-01-13T18:59:35.926Z,1.00
2023-01-13T19:02:09.192Z,1.00
2023-01-13T19:04:36.486Z,1.00
2023-01-13T19:07:04.389Z,0.90
2023-01-13T19:09:31.653Z,0.80
2023-01-13T19:12:01.134Z,1.10
2023-01-13T19:14:34.349Z,0.52
2023-01-13T19:17:02.870Z,1.00
2023-01-13T19:19:31.283Z,0.77
2023-01-13T19:21:58.419Z,0.70
2023-01-13T19:24:26.090Z,0.93
2023-01-13T19:26:54.218Z,0.73
2023-01-13T19:29:21.392Z,0.82
2023-01-13T19:31:48.770Z,0.80
2023-01-13T19:34:16.138Z,1.42
2023-01-13T19:36:43.398Z,0.90
2023-01-13T19:39:10.596Z,0.77
2023-01-13T19:41:56.723Z,0.73
2023-01-13T19:44:42.725Z,0.85
2023-01-13T19:47:09.932Z,0.90
2023-01-13T19:49:37.146Z,1.52
2023-01-13T19:52:04.495Z,0.90
2023-01-13T19:54:31.644Z,0.60
2023-01-13T19:56:58.821Z,1.00
2023-01-13T19:59:35.464Z,0.90
2023-01-13T20:02:09.097Z,0.73
2023-01-13T20:04:39.081Z,2.67
2023-01-13T20:07:07.209Z,0.50
2023-01-13T20:09:35.727Z,0.52
2023-01-13T20:12:21.219Z,0.80
2023-01-13T20:14:48.587Z,0.60
2023-01-13T20:17:16.698Z,0.63
2023-01-13T20:19:44.268Z,0.70
2023-01-13T20:22:11.822Z,0.63
2023-01-13T20:24:39.139Z,0.45
2023-01-13T20:27:06.540Z,0.70
2023-01-13T20:29:33.914Z,0.60
2023-01-13T20:32:01.208Z,0.68
2023-01-13T20:34:28.689Z,0.85
2023-01-13T20:36:55.846Z,0.70
2023-01-13T20:39:27.903Z,0.82
2023-01-13T20:42:14.168Z,0.57
2023-01-13T20:44:41.567Z,0.88
2023-01-13T20:47:08.905Z,0.70
2023-01-13T20:49:36.904Z,0.73
2023-01-13T20:52:09.269Z,0.75
2023-01-13T20:54:37.224Z,0.57
2023-01-13T20:57:05.182Z,0.85
2023-01-13T20:59:32.460Z,0.50
2023-01-13T21:01:59.685Z,0.60
2023-01-13T21:04:26.849Z,0.47
2023-01-13T21:06:55.198Z,0.73
2023-01-13T21:09:27.264Z,0.50
2023-01-13T21:12:13.482Z,0.60
2023-01-13T21:14:59.412Z,0.80
2023-01-13T21:17:45.467Z,0.60
2023-01-13T21:20:14.141Z,0.63
2023-01-13T21:22:45.326Z,0.60
2023-01-13T21:25:12.638Z,0.70
2023-01-13T21:27:39.880Z,0.52
2023-01-13T21:30:07.623Z,0.60
2023-01-13T21:32:34.767Z,0.60
2023-01-13T21:35:02.101Z,0.77
2023-01-13T21:37:29.299Z,0.60
2023-01-13T21:39:56.459Z,0.70
2023-01-13T21:42:42.281Z,0.90
2023-01-13T21:45:29.308Z,1.08
2023-01-13T21:47:56.701Z,0.90
2023-01-13T21:50:24.982Z,0.80
2023-01-13T21:52:52.648Z,1.50
2023-01-13T21:55:20.728Z,0.75
2023-01-13T21:57:48.402Z,0.50
2023-01-13T22:00:17.752Z,0.63
2023-01-13T22:02:45.085Z,0.47
2023-01-13T22:05:13.807Z,0.60
2023-01-13T22:07:41.507Z,0.82
2023-01-13T22:10:10.395Z,0.63
2023-01-13T22:12:37.548Z,0.25
2023-01-13T22:15:05.210Z,0.40
2023-01-13T22:17:32.440Z,0.50
2023-01-13T22:20:00.245Z,0.60
2023-01-13T22:22:27.553Z,0.47
2023-01-13T22:24:55.100Z,0.43
2023-01-13T22:27:26.379Z,0.40
2023-01-13T22:29:53.997Z,0.50
2023-01-13T22:32:21.672Z,0.90
2023-01-13T22:34:49.280Z,0.40
2023-01-13T22:37:16.443Z,0.50
2023-01-13T22:39:43.669Z,0.80
2023-01-13T22:42:11.637Z,0.50
2023-01-13T22:44:38.816Z,0.60
2023-01-13T22:47:08.479Z,0.60
2023-01-13T22:49:35.634Z,3.10
2023-01-13T22:52:02.830Z,0.95
2023-01-13T22:54:30.028Z,0.60
2023-01-13T22:56:57.207Z,0.60
2023-01-13T22:59:24.442Z,0.40
2023-01-13T23:01:51.630Z,0.50
2023-01-13T23:04:19.078Z,0.50
2023-01-13T23:06:46.300Z,0.40
2023-01-13T23:09:13.417Z,0.30
2023-01-13T23:11:40.973Z,0.70
2023-01-13T23:14:09.195Z,0.63
2023-01-13T23:16:38.200Z,0.57
2023-01-13T23:19:05.879Z,0.80
2023-01-13T23:21:34.249Z,0.80
2023-01-13T23:24:01.431Z,0.80
2023-01-13T23:26:29.142Z,0.57
2023-01-13T23:29:04.196Z,0.88
2023-01-13T23:31:31.407Z,0.68
2023-01-13T23:33:58.624Z,0.88
2023-01-13T23:36:26.836Z,0.57
2023-01-13T23:38:54.287Z,0.55
2023-01-13T23:41:23.314Z,0.68
2023-01-13T23:43:51.871Z,0.60
2023-01-13T23:46:20.278Z,0.73
2023-01-13T23:48:47.752Z,0.90
2023-01-13T23:51:15.051Z,0.80
2023-01-13T23:53:47.021Z,0.70
2023-01-13T23:56:21.802Z,0.50
2023-01-13T23:58:49.103Z,0.60
